sensor_id;sensor_type;location;lat;lon;timestamp;pressure;altitude;pressure_sealevel;temperature;humidity
51289;BME280;37372;52.294;5.152;2022-08-19T00:00:13;101448.25;;;18.08;100.00
51289;BME280;37372;52.294;5.152;2022-08-19T00:02:39;101449.03;;;18.08;100.00
51289;BME280;37372;52.294;5.152;2022-08-19T00:05:05;101446.97;;;18.09;100.00
51289;BME280;37372;52.294;5.152;2022-08-19T00:07:30;101442.13;;;18.09;100.00
51289;BME280;37372;52.294;5.152;2022-08-19T00:09:56;101448.69;;;18.06;100.00
51289;BME280;37372;52.294;5.152;2022-08-19T00:12:21;101444.59;;;18.07;100.00
51289;BME280;37372;52.294;5.152;2022-08-19T00:14:46;101450.84;;;18.02;100.00
51289;BME280;37372;52.294;5.152;2022-08-19T00:17:12;101449.25;;;18.01;100.00
51289;BME280;37372;52.294;5.152;2022-08-19T00:19:37;101454.25;;;17.97;100.00
51289;BME280;37372;52.294;5.152;2022-08-19T00:22:03;101454.25;;;17.97;100.00
51289;BME280;37372;52.294;5.152;2022-08-19T00:24:31;101467.75;;;17.93;100.00
51289;BME280;37372;52.294;5.152;2022-08-19T00:26:56;101467.88;;;17.89;100.00
51289;BME280;37372;52.294;5.152;2022-08-19T00:29:24;101462.97;;;17.90;100.00
51289;BME280;37372;52.294;5.152;2022-08-19T00:31:51;101456.50;;;17.89;100.00
51289;BME280;37372;52.294;5.152;2022-08-19T00:34:19;101456.16;;;17.87;100.00
51289;BME280;37372;52.294;5.152;2022-08-19T00:36:45;101455.03;;;17.85;100.00
51289;BME280;37372;52.294;5.152;2022-08-19T00:39:12;101446.16;;;17.83;100.00
51289;BME280;37372;52.294;5.152;2022-08-19T00:41:38;101442.72;;;17.75;100.00
51289;BME280;37372;52.294;5.152;2022-08-19T00:44:13;101439.75;;;17.66;100.00
51289;BME280;37372;52.294;5.152;2022-08-19T00:46:42;101436.22;;;17.62;100.00
51289;BME280;37372;52.294;5.152;2022-08-19T00:49:31;101435.63;;;17.54;100.00
51289;BME280;37372;52.294;5.152;2022-08-19T00:52:07;101429.25;;;17.50;100.00
51289;BME280;37372;52.294;5.152;2022-08-19T00:54:35;101434.13;;;17.49;100.00
51289;BME280;37372;52.294;5.152;2022-08-19T00:57:04;101424.50;;;17.47;100.00
51289;BME280;37372;52.294;5.152;2022-08-19T00:59:33;101427.31;;;17.47;100.00
51289;BME280;37372;52.294;5.152;2022-08-19T01:02:00;101430.50;;;17.49;100.00
51289;BME280;37372;52.294;5.152;2022-08-19T01:04:26;101443.00;;;17.51;100.00
51289;BME280;37372;52.294;5.152;2022-08-19T01:06:51;101453.91;;;17.53;100.00
51289;BME280;37372;52.294;5.152;2022-08-19T01:09:16;101448.66;;;17.51;100.00
51289;BME280;37372;52.294;5.152;2022-08-19T01:11:43;101445.84;;;17.51;100.00
51289;BME280;37372;52.294;5.152;2022-08-19T01:14:10;101449.47;;;17.52;100.00
51289;BME280;37372;52.294;5.152;2022-08-19T01:16:37;101449.66;;;17.45;100.00
51289;BME280;37372;52.294;5.152;2022-08-19T01:19:09;101452.69;;;17.38;100.00
51289;BME280;37372;52.294;5.152;2022-08-19T01:21:41;101452.09;;;17.30;100.00
51289;BME280;37372;52.294;5.152;2022-08-19T01:24:07;101450.28;;;17.23;100.00
51289;BME280;37372;52.294;5.152;2022-08-19T01:26:38;101451.97;;;17.21;100.00
51289;BME280;37372;52.294;5.152;2022-08-19T01:29:07;101447.19;;;17.18;100.00
51289;BME280;37372;52.294;5.152;2022-08-19T01:31:33;101457.56;;;17.08;100.00
51289;BME280;37372;52.294;5.152;2022-08-19T01:34:00;101455.97;;;17.07;100.00
51289;BME280;37372;52.294;5.152;2022-08-19T01:36:32;101449.63;;;17.03;100.00
51289;BME280;37372;52.294;5.152;2022-08-19T01:38:59;101459.69;;;17.04;100.00
51289;BME280;37372;52.294;5.152;2022-08-19T01:41:25;101457.56;;;17.08;100.00
51289;BME280;37372;52.294;5.152;2022-08-19T01:43:52;101458.72;;;17.10;100.00
51289;BME280;37372;52.294;5.152;2022-08-19T01:46:18;101456.31;;;17.09;100.00
51289;BME280;37372;52.294;5.152;2022-08-19T01:48:45;101454.75;;;17.08;100.00
51289;BME280;37372;52.294;5.152;2022-08-19T01:51:11;101455.97;;;17.07;100.00
51289;BME280;37372;52.294;5.152;2022-08-19T01:53:38;101462.00;;;17.09;100.00
51289;BME280;37372;52.294;5.152;2022-08-19T01:56:04;101475.72;;;17.10;100.00
51289;BME280;37372;52.294;5.152;2022-08-19T01:58:39;101468.13;;;17.07;100.00
51289;BME280;37372;52.294;5.152;2022-08-19T02:01:07;101467.75;;;17.05;100.00
51289;BME280;37372;52.294;5.152;2022-08-19T02:03:33;101452.34;;;17.06;100.00
51289;BME280;37372;52.294;5.152;2022-08-19T02:06:00;101453.50;;;17.09;100.00
51289;BME280;37372;52.294;5.152;2022-08-19T02:08:29;101456.50;;;17.02;100.00
51289;BME280;37372;52.294;5.152;2022-08-19T02:10:54;101464.22;;;17.01;100.00
51289;BME280;37372;52.294;5.152;2022-08-19T02:13:20;101458.00;;;17.06;100.00
51289;BME280;37372;52.294;5.152;2022-08-19T02:15:45;101474.59;;;17.08;100.00
51289;BME280;37372;52.294;5.152;2022-08-19T02:18:11;101472.91;;;17.10;100.00
51289;BME280;37372;52.294;5.152;2022-08-19T02:20:38;101471.75;;;17.08;100.00
51289;BME280;37372;52.294;5.152;2022-08-19T02:23:04;101469.00;;;17.04;100.00
51289;BME280;37372;52.294;5.152;2022-08-19T02:25:29;101473.50;;;17.02;100.00
51289;BME280;37372;52.294;5.152;2022-08-19T02:27:55;101472.72;;;17.01;100.00
51289;BME280;37372;52.294;5.152;2022-08-19T02:30:20;101470.25;;;17.03;100.00
51289;BME280;37372;52.294;5.152;2022-08-19T02:32:46;101466.25;;;17.01;100.00
51289;BME280;37372;52.294;5.152;2022-08-19T02:35:13;101467.16;;;16.98;100.00
51289;BME280;37372;52.294;5.152;2022-08-19T02:37:39;101466.81;;;16.96;100.00
51289;BME280;37372;52.294;5.152;2022-08-19T02:40:23;101463.97;;;16.96;100.00
51289;BME280;37372;52.294;5.152;2022-08-19T02:42:49;101463.97;;;16.96;100.00
51289;BME280;37372;52.294;5.152;2022-08-19T02:45:14;101456.38;;;16.92;100.00
51289;BME280;37372;52.294;5.152;2022-08-19T02:47:40;101455.09;;;16.93;100.00
51289;BME280;37372;52.294;5.152;2022-08-19T02:50:06;101457.88;;;16.97;100.00
51289;BME280;37372;52.294;5.152;2022-08-19T02:52:33;101448.53;;;16.97;100.00
51289;BME280;37372;52.294;5.152;2022-08-19T02:54:59;101449.69;;;16.99;100.00
51289;BME280;37372;52.294;5.152;2022-08-19T02:57:24;101446.16;;;16.95;100.00
51289;BME280;37372;52.294;5.152;2022-08-19T02:59:50;101454.22;;;16.97;100.00
51289;BME280;37372;52.294;5.152;2022-08-19T03:02:15;101434.06;;;16.95;100.00
51289;BME280;37372;52.294;5.152;2022-08-19T03:04:41;101434.06;;;16.95;100.00
51289;BME280;37372;52.294;5.152;2022-08-19T03:07:07;101430.84;;;16.92;100.00
51289;BME280;37372;52.294;5.152;2022-08-19T03:09:32;101436.06;;;16.94;100.00
51289;BME280;37372;52.294;5.152;2022-08-19T03:11:58;101436.53;;;16.92;100.00
51289;BME280;37372;52.294;5.152;2022-08-19T03:14:23;101443.78;;;16.93;100.00
51289;BME280;37372;52.294;5.152;2022-08-19T03:16:51;101444.50;;;16.98;100.00
51289;BME280;37372;52.294;5.152;2022-08-19T03:19:18;101450.16;;;16.98;100.00
51289;BME280;37372;52.294;5.152;2022-08-19T03:21:45;101444.50;;;16.98;100.00
51289;BME280;37372;52.294;5.152;2022-08-19T03:24:11;101438.81;;;16.98;100.00
51289;BME280;37372;52.294;5.152;2022-08-19T03:26:42;101429.59;;;16.93;100.00
51289;BME280;37372;52.294;5.152;2022-08-19T03:29:09;101432.44;;;16.93;100.00
51289;BME280;37372;52.294;5.152;2022-08-19T03:31:37;101423.59;;;16.91;100.00
51289;BME280;37372;52.294;5.152;2022-08-19T03:34:04;101423.69;;;16.88;100.00
51289;BME280;37372;52.294;5.152;2022-08-19T03:36:29;101413.94;;;16.89;100.00
51289;BME280;37372;52.294;5.152;2022-08-19T03:38:57;101416.88;;;16.85;100.00
51289;BME280;37372;52.294;5.152;2022-08-19T03:41:25;101420.59;;;16.82;100.00
51289;BME280;37372;52.294;5.152;2022-08-19T03:43:51;101413.78;;;16.80;100.00
51289;BME280;37372;52.294;5.152;2022-08-19T03:46:20;101423.94;;;16.77;100.00
51289;BME280;37372;52.294;5.152;2022-08-19T03:48:46;101420.69;;;16.79;100.00
51289;BME280;37372;52.294;5.152;2022-08-19T03:51:21;101425.56;;;16.78;100.00
51289;BME280;37372;52.294;5.152;2022-08-19T03:53:47;101424.66;;;16.81;100.00
51289;BME280;37372;52.294;5.152;2022-08-19T03:56:13;101436.00;;;16.81;100.00
51289;BME280;37372;52.294;5.152;2022-08-19T03:58:39;101425.47;;;16.82;100.00
51289;BME280;37372;52.294;5.152;2022-08-19T04:01:10;101442.91;;;16.80;100.00
51289;BME280;37372;52.294;5.152;2022-08-19T04:03:36;101445.31;;;16.82;100.00
51289;BME280;37372;52.294;5.152;2022-08-19T04:06:13;101433.16;;;16.81;100.00
51289;BME280;37372;52.294;5.152;2022-08-19T04:08:42;101423.09;;;16.80;100.00
51289;BME280;37372;52.294;5.152;2022-08-19T04:11:10;101437.69;;;16.79;100.00
51289;BME280;37372;52.294;5.152;2022-08-19T04:13:35;101436.88;;;16.78;100.00
51289;BME280;37372;52.294;5.152;2022-08-19T04:16:01;101434.50;;;16.77;100.00
51289;BME280;37372;52.294;5.152;2022-08-19T04:18:26;101433.34;;;16.74;100.00
51289;BME280;37372;52.294;5.152;2022-08-19T04:20:55;101437.41;;;16.73;100.00
51289;BME280;37372;52.294;5.152;2022-08-19T04:23:20;101426.41;;;16.75;100.00
51289;BME280;37372;52.294;5.152;2022-08-19T04:25:45;101422.34;;;16.76;100.00
51289;BME280;37372;52.294;5.152;2022-08-19T04:28:12;101423.59;;;16.75;100.00
51289;BME280;37372;52.294;5.152;2022-08-19T04:30:40;101425.63;;;16.75;100.00
51289;BME280;37372;52.294;5.152;2022-08-19T04:33:06;101426.41;;;16.75;100.00
51289;BME280;37372;52.294;5.152;2022-08-19T04:35:36;101421.53;;;16.76;100.00
51289;BME280;37372;52.294;5.152;2022-08-19T04:38:03;101422.72;;;16.78;100.00
51289;BME280;37372;52.294;5.152;2022-08-19T04:40:28;101415.84;;;16.79;100.00
51289;BME280;37372;52.294;5.152;2022-08-19T04:43:12;101426.78;;;16.77;100.00
51289;BME280;37372;52.294;5.152;2022-08-19T04:45:42;101421.13;;;16.77;100.00
51289;BME280;37372;52.294;5.152;2022-08-19T04:48:08;101428.09;;;16.73;100.00
51289;BME280;37372;52.294;5.152;2022-08-19T04:50:34;101423.22;;;16.73;100.00
51289;BME280;37372;52.294;5.152;2022-08-19T04:52:59;101422.88;;;16.71;100.00
51289;BME280;37372;52.294;5.152;2022-08-19T04:55:25;101425.72;;;16.71;100.00
51289;BME280;37372;52.294;5.152;2022-08-19T04:57:50;101429.78;;;16.70;100.00
51289;BME280;37372;52.294;5.152;2022-08-19T05:00:16;101441.47;;;16.72;100.00
51289;BME280;37372;52.294;5.152;2022-08-19T05:02:41;101436.50;;;16.76;100.00
51289;BME280;37372;52.294;5.152;2022-08-19T05:05:07;101443.00;;;16.77;100.00
51289;BME280;37372;52.294;5.152;2022-08-19T05:07:33;101446.59;;;16.77;100.00
51289;BME280;37372;52.294;5.152;2022-08-19T05:09:59;101452.66;;;16.79;100.00
51289;BME280;37372;52.294;5.152;2022-08-19T05:12:24;101458.22;;;16.83;100.00
51289;BME280;37372;52.294;5.152;2022-08-19T05:14:49;101465.47;;;16.84;100.00
51289;BME280;37372;52.294;5.152;2022-08-19T05:17:15;101470.72;;;16.85;100.00
51289;BME280;37372;52.294;5.152;2022-08-19T05:19:40;101470.16;;;16.90;100.00
51289;BME280;37372;52.294;5.152;2022-08-19T05:22:24;101468.84;;;16.95;100.00
51289;BME280;37372;52.294;5.152;2022-08-19T05:25:14;101460.69;;;16.97;100.00
51289;BME280;37372;52.294;5.152;2022-08-19T05:27:40;101460.59;;;17.01;100.00
51289;BME280;37372;52.294;5.152;2022-08-19T05:30:07;101462.53;;;17.04;100.00
51289;BME280;37372;52.294;5.152;2022-08-19T05:32:32;101453.13;;;17.07;100.00
51289;BME280;37372;52.294;5.152;2022-08-19T05:34:58;101442.50;;;17.11;100.00
51289;BME280;37372;52.294;5.152;2022-08-19T05:37:23;101447.28;;;17.14;100.00
51289;BME280;37372;52.294;5.152;2022-08-19T05:39:51;101445.94;;;17.19;100.00
51289;BME280;37372;52.294;5.152;2022-08-19T05:42:17;101444.59;;;17.23;100.00
51289;BME280;37372;52.294;5.152;2022-08-19T05:44:44;101440.44;;;17.28;100.00
51289;BME280;37372;52.294;5.152;2022-08-19T05:47:11;101445.56;;;17.33;100.00
51289;BME280;37372;52.294;5.152;2022-08-19T05:49:37;101445.00;;;17.38;100.00
51289;BME280;37372;52.294;5.152;2022-08-19T05:52:05;101438.78;;;17.43;100.00
51289;BME280;37372;52.294;5.152;2022-08-19T05:54:30;101443.78;;;17.52;100.00
51289;BME280;37372;52.294;5.152;2022-08-19T05:56:56;101430.97;;;17.60;100.00
51289;BME280;37372;52.294;5.152;2022-08-19T05:59:21;101435.22;;;17.68;100.00
51289;BME280;37372;52.294;5.152;2022-08-19T06:01:50;101431.81;;;17.73;100.00
51289;BME280;37372;52.294;5.152;2022-08-19T06:04:16;101442.63;;;17.78;100.00
51289;BME280;37372;52.294;5.152;2022-08-19T06:06:43;101440.47;;;17.83;100.00
51289;BME280;37372;52.294;5.152;2022-08-19T06:09:09;101444.38;;;17.89;100.00
51289;BME280;37372;52.294;5.152;2022-08-19T06:11:39;101442.19;;;17.93;100.00
51289;BME280;37372;52.294;5.152;2022-08-19T06:14:09;101442.44;;;17.98;100.00
51289;BME280;37372;52.294;5.152;2022-08-19T06:16:36;101447.66;;;18.00;100.00
51289;BME280;37372;52.294;5.152;2022-08-19T06:19:06;101447.09;;;18.05;100.00
51289;BME280;37372;52.294;5.152;2022-08-19T06:21:33;101442.44;;;18.11;100.00
51289;BME280;37372;52.294;5.152;2022-08-19T06:23:59;101443.81;;;18.19;100.00
51289;BME280;37372;52.294;5.152;2022-08-19T06:26:24;101435.06;;;18.27;100.00
51289;BME280;37372;52.294;5.152;2022-08-19T06:28:51;101440.50;;;18.34;100.00
51289;BME280;37372;52.294;5.152;2022-08-19T06:31:22;101443.69;;;18.36;100.00
51289;BME280;37372;52.294;5.152;2022-08-19T06:33:48;101431.41;;;18.39;100.00
51289;BME280;37372;52.294;5.152;2022-08-19T06:36:38;101433.38;;;18.42;100.00
51289;BME280;37372;52.294;5.152;2022-08-19T06:39:09;101430.41;;;18.46;100.00
51289;BME280;37372;52.294;5.152;2022-08-19T06:41:39;101420.50;;;18.50;100.00
51289;BME280;37372;52.294;5.152;2022-08-19T06:44:06;101429.81;;;18.51;100.00
51289;BME280;37372;52.294;5.152;2022-08-19T06:46:32;101430.97;;;18.53;100.00
51289;BME280;37372;52.294;5.152;2022-08-19T06:48:58;101433.78;;;18.53;100.00
51289;BME280;37372;52.294;5.152;2022-08-19T06:51:24;101432.53;;;18.54;100.00
51289;BME280;37372;52.294;5.152;2022-08-19T06:53:52;101444.59;;;18.58;100.00
51289;BME280;37372;52.294;5.152;2022-08-19T06:56:20;101446.63;;;18.58;100.00
51289;BME280;37372;52.294;5.152;2022-08-19T06:58:46;101450.28;;;18.58;100.00
51289;BME280;37372;52.294;5.152;2022-08-19T07:01:12;101455.59;;;18.56;100.00
51289;BME280;37372;52.294;5.152;2022-08-19T07:03:38;101454.03;;;18.55;100.00
51289;BME280;37372;52.294;5.152;2022-08-19T07:06:11;101465.38;;;18.55;100.00
51289;BME280;37372;52.294;5.152;2022-08-19T07:08:37;101461.63;;;18.58;100.00
51289;BME280;37372;52.294;5.152;2022-08-19T07:11:07;101448.56;;;18.61;100.00
51289;BME280;37372;52.294;5.152;2022-08-19T07:13:33;101462.63;;;18.64;100.00
51289;BME280;37372;52.294;5.152;2022-08-19T07:16:06;101464.25;;;18.65;100.00
51289;BME280;37372;52.294;5.152;2022-08-19T07:18:32;101465.03;;;18.66;100.00
51289;BME280;37372;52.294;5.152;2022-08-19T07:21:12;101466.16;;;18.69;100.00
51289;BME280;37372;52.294;5.152;2022-08-19T07:23:38;101462.06;;;18.70;100.00
51289;BME280;37372;52.294;5.152;2022-08-19T07:26:13;101468.44;;;18.74;100.00
51289;BME280;37372;52.294;5.152;2022-08-19T07:28:39;101465.97;;;18.76;100.00
51289;BME280;37372;52.294;5.152;2022-08-19T07:31:08;101470.72;;;18.79;100.00
51289;BME280;37372;52.294;5.152;2022-08-19T07:33:35;101461.63;;;18.84;100.00
51289;BME280;37372;52.294;5.152;2022-08-19T07:36:04;101463.88;;;18.89;100.00
51289;BME280;37372;52.294;5.152;2022-08-19T07:38:31;101464.56;;;18.93;100.00
51289;BME280;37372;52.294;5.152;2022-08-19T07:40:57;101475.00;;;18.96;100.00
51289;BME280;37372;52.294;5.152;2022-08-19T07:43:22;101468.75;;;19.01;100.00
51289;BME280;37372;52.294;5.152;2022-08-19T07:45:50;101471.34;;;19.08;100.00
51289;BME280;37372;52.294;5.152;2022-08-19T07:48:15;101468.56;;;19.18;100.00
51289;BME280;37372;52.294;5.152;2022-08-19T07:50:41;101472.41;;;19.24;100.00
51289;BME280;37372;52.294;5.152;2022-08-19T07:53:06;101472.28;;;19.27;100.00
51289;BME280;37372;52.294;5.152;2022-08-19T07:55:31;101477.03;;;19.30;100.00
51289;BME280;37372;52.294;5.152;2022-08-19T07:57:57;101486.06;;;19.29;100.00
51289;BME280;37372;52.294;5.152;2022-08-19T08:00:22;101474.75;;;19.38;100.00
51289;BME280;37372;52.294;5.152;2022-08-19T08:02:48;101484.41;;;19.41;100.00
51289;BME280;37372;52.294;5.152;2022-08-19T08:05:13;101484.13;;;19.48;100.00
51289;BME280;37372;52.294;5.152;2022-08-19T08:07:57;101479.78;;;19.56;100.00
51289;BME280;37372;52.294;5.152;2022-08-19T08:10:41;101487.25;;;19.63;100.00
51289;BME280;37372;52.294;5.152;2022-08-19T08:13:06;101486.25;;;19.69;100.00
51289;BME280;37372;52.294;5.152;2022-08-19T08:15:32;101485.16;;;19.76;100.00
51289;BME280;37372;52.294;5.152;2022-08-19T08:17:57;101489.03;;;19.82;100.00
51289;BME280;37372;52.294;5.152;2022-08-19T08:20:23;101485.44;;;19.91;100.00
51289;BME280;37372;52.294;5.152;2022-08-19T08:22:48;101497.78;;;19.97;100.00
51289;BME280;37372;52.294;5.152;2022-08-19T08:25:33;101497.19;;;20.02;100.00
51289;BME280;37372;52.294;5.152;2022-08-19T08:28:00;101501.81;;;20.09;100.00
51289;BME280;37372;52.294;5.152;2022-08-19T08:30:27;101502.34;;;20.16;100.00
51289;BME280;37372;52.294;5.152;2022-08-19T08:32:53;101501.28;;;20.23;100.00
51289;BME280;37372;52.294;5.152;2022-08-19T08:35:22;101497.63;;;20.23;100.00
51289;BME280;37372;52.294;5.152;2022-08-19T08:37:49;101504.44;;;20.25;100.00
51289;BME280;37372;52.294;5.152;2022-08-19T08:40:29;101502.84;;;20.24;100.00
51289;BME280;37372;52.294;5.152;2022-08-19T08:45:48;101509.22;;;20.28;100.00
51289;BME280;37372;52.294;5.152;2022-08-19T08:48:30;101502.56;;;20.31;100.00
51289;BME280;37372;52.294;5.152;2022-08-19T08:50:59;101504.81;;;20.36;100.00
51289;BME280;37372;52.294;5.152;2022-08-19T08:53:26;101509.91;;;20.42;100.00
51289;BME280;37372;52.294;5.152;2022-08-19T08:55:52;101502.13;;;20.42;100.00
51289;BME280;37372;52.294;5.152;2022-08-19T08:58:27;101505.81;;;20.52;100.00
51289;BME280;37372;52.294;5.152;2022-08-19T09:00:53;101507.13;;;20.60;100.00
51289;BME280;37372;52.294;5.152;2022-08-19T09:03:21;101511.59;;;20.70;100.00
51289;BME280;37372;52.294;5.152;2022-08-19T09:10:55;101501.41;;;21.00;100.00
51289;BME280;37372;52.294;5.152;2022-08-19T09:16:09;101504.13;;;21.22;99.54
51289;BME280;37372;52.294;5.152;2022-08-19T09:18:45;101501.25;;;21.32;99.61
51289;BME280;37372;52.294;5.152;2022-08-19T09:21:13;101508.88;;;21.35;99.63
51289;BME280;37372;52.294;5.152;2022-08-19T09:23:39;101513.94;;;21.31;99.07
51289;BME280;37372;52.294;5.152;2022-08-19T09:26:15;101510.78;;;21.29;99.67
51289;BME280;37372;52.294;5.152;2022-08-19T09:28:42;101514.41;;;21.29;98.79
51289;BME280;37372;52.294;5.152;2022-08-19T09:31:12;101509.19;;;21.28;98.39
51289;BME280;37372;52.294;5.152;2022-08-19T09:33:38;101506.66;;;21.30;99.00
51289;BME280;37372;52.294;5.152;2022-08-19T09:36:09;101510.78;;;21.38;99.21
51289;BME280;37372;52.294;5.152;2022-08-19T09:38:36;101513.19;;;21.49;98.63
51289;BME280;37372;52.294;5.152;2022-08-19T09:41:06;101514.31;;;21.60;97.97
51289;BME280;37372;52.294;5.152;2022-08-19T09:43:32;101511.44;;;21.70;97.45
51289;BME280;37372;52.294;5.152;2022-08-19T09:46:02;101512.06;;;21.74;96.92
51289;BME280;37372;52.294;5.152;2022-08-19T09:48:29;101516.19;;;21.73;96.68
51289;BME280;37372;52.294;5.152;2022-08-19T09:50:54;101511.09;;;21.67;96.22
51289;BME280;37372;52.294;5.152;2022-08-19T09:53:19;101511.75;;;21.62;96.30
51289;BME280;37372;52.294;5.152;2022-08-19T09:55:47;101515.56;;;21.68;96.67
51289;BME280;37372;52.294;5.152;2022-08-19T09:58:12;101515.06;;;21.79;96.73
51289;BME280;37372;52.294;5.152;2022-08-19T10:00:38;101519.03;;;21.91;95.65
51289;BME280;37372;52.294;5.152;2022-08-19T10:03:03;101521.69;;;22.04;94.67
51289;BME280;37372;52.294;5.152;2022-08-19T10:05:29;101512.63;;;22.15;94.25
51289;BME280;37372;52.294;5.152;2022-08-19T10:08:13;101510.88;;;22.26;93.44
51289;BME280;37372;52.294;5.152;2022-08-19T10:10:42;101516.53;;;22.36;93.20
51289;BME280;37372;52.294;5.152;2022-08-19T10:13:09;101514.78;;;22.38;92.52
51289;BME280;37372;52.294;5.152;2022-08-19T10:15:34;101514.78;;;22.38;91.99
51289;BME280;37372;52.294;5.152;2022-08-19T10:18:00;101506.84;;;22.42;91.33
51289;BME280;37372;52.294;5.152;2022-08-19T10:20:25;101501.59;;;22.41;90.73
51289;BME280;37372;52.294;5.152;2022-08-19T10:22:51;101504.00;;;22.33;90.88
51289;BME280;37372;52.294;5.152;2022-08-19T10:25:16;101504.69;;;22.19;91.25
51289;BME280;37372;52.294;5.152;2022-08-19T10:27:42;101505.34;;;22.04;91.82
51289;BME280;37372;52.294;5.152;2022-08-19T10:30:08;101509.97;;;21.93;92.79
51289;BME280;37372;52.294;5.152;2022-08-19T10:32:34;101507.75;;;21.87;92.92
51289;BME280;37372;52.294;5.152;2022-08-19T10:35:00;101502.03;;;21.87;92.85
51289;BME280;37372;52.294;5.152;2022-08-19T10:37:25;101506.19;;;21.86;93.11
51289;BME280;37372;52.294;5.152;2022-08-19T10:39:51;101498.25;;;21.91;93.08
51289;BME280;37372;52.294;5.152;2022-08-19T10:42:17;101504.44;;;21.98;92.52
51289;BME280;37372;52.294;5.152;2022-08-19T10:44:44;101503.41;;;22.10;92.35
51289;BME280;37372;52.294;5.152;2022-08-19T10:47:10;101504.38;;;22.17;91.92
51289;BME280;37372;52.294;5.152;2022-08-19T10:49:35;101514.50;;;22.18;90.95
51289;BME280;37372;52.294;5.152;2022-08-19T10:52:21;101497.22;;;22.12;89.91
51289;BME280;37372;52.294;5.152;2022-08-19T10:54:59;101497.75;;;22.01;88.72
51289;BME280;37372;52.294;5.152;2022-08-19T10:57:43;101500.47;;;21.96;89.83
51289;BME280;37372;52.294;5.152;2022-08-19T11:00:09;101502.22;;;21.93;90.29
51289;BME280;37372;52.294;5.152;2022-08-19T11:02:38;101502.66;;;22.01;89.94
51289;BME280;37372;52.294;5.152;2022-08-19T11:05:04;101508.69;;;22.03;90.05
51289;BME280;37372;52.294;5.152;2022-08-19T11:07:30;101513.91;;;22.04;89.98
51289;BME280;37372;52.294;5.152;2022-08-19T11:09:56;101511.88;;;21.96;89.62
51289;BME280;37372;52.294;5.152;2022-08-19T11:12:21;101512.38;;;21.85;90.14
51289;BME280;37372;52.294;5.152;2022-08-19T11:14:46;101512.06;;;21.74;91.04
51289;BME280;37372;52.294;5.152;2022-08-19T11:17:15;101512.38;;;21.66;91.55
51289;BME280;37372;52.294;5.152;2022-08-19T11:19:41;101510.50;;;21.63;92.31
51289;BME280;37372;52.294;5.152;2022-08-19T11:22:08;101512.06;;;21.64;93.25
51289;BME280;37372;52.294;5.152;2022-08-19T11:24:35;101503.66;;;21.70;93.40
51289;BME280;37372;52.294;5.152;2022-08-19T11:27:05;101507.28;;;21.80;93.66
51289;BME280;37372;52.294;5.152;2022-08-19T11:29:37;101506.31;;;21.92;93.28
51289;BME280;37372;52.294;5.152;2022-08-19T11:32:07;101506.78;;;22.00;93.03
51289;BME280;37372;52.294;5.152;2022-08-19T11:34:34;101509.78;;;22.05;93.01
51289;BME280;37372;52.294;5.152;2022-08-19T11:37:01;101504.22;;;22.11;92.92
51289;BME280;37372;52.294;5.152;2022-08-19T11:39:29;101498.50;;;22.20;92.32
51289;BME280;37372;52.294;5.152;2022-08-19T11:41:57;101506.25;;;22.29;91.29
51289;BME280;37372;52.294;5.152;2022-08-19T11:44:22;101500.81;;;22.40;90.75
51289;BME280;37372;52.294;5.152;2022-08-19T11:46:48;101499.19;;;22.48;88.53
51289;BME280;37372;52.294;5.152;2022-08-19T11:49:16;101499.03;;;22.52;88.32
51289;BME280;37372;52.294;5.152;2022-08-19T11:51:43;101500.91;;;22.55;87.63
51289;BME280;37372;52.294;5.152;2022-08-19T11:54:09;101501.50;;;22.59;87.59
51289;BME280;37372;52.294;5.152;2022-08-19T11:56:34;101513.13;;;22.56;87.16
51289;BME280;37372;52.294;5.152;2022-08-19T11:59:01;101507.59;;;22.52;87.57
51289;BME280;37372;52.294;5.152;2022-08-19T12:01:27;101517.44;;;22.51;87.09
51289;BME280;37372;52.294;5.152;2022-08-19T12:03:55;101514.25;;;22.49;86.74
51289;BME280;37372;52.294;5.152;2022-08-19T12:06:29;101515.09;;;22.49;86.62
51289;BME280;37372;52.294;5.152;2022-08-19T12:09:01;101515.56;;;22.48;86.58
51289;BME280;37372;52.294;5.152;2022-08-19T12:11:27;101512.88;;;22.44;87.15
51289;BME280;37372;52.294;5.152;2022-08-19T12:13:53;101510.97;;;22.41;88.01
51289;BME280;37372;52.294;5.152;2022-08-19T12:16:26;101514.19;;;22.34;88.13
51289;BME280;37372;52.294;5.152;2022-08-19T12:18:53;101526.44;;;22.25;88.69
51289;BME280;37372;52.294;5.152;2022-08-19T12:21:23;101523.59;;;22.16;89.63
51289;BME280;37372;52.294;5.152;2022-08-19T12:23:53;101519.00;;;22.09;90.30
51289;BME280;37372;52.294;5.152;2022-08-19T12:26:20;101531.69;;;22.08;90.76
51289;BME280;37372;52.294;5.152;2022-08-19T12:28:45;101525.16;;;22.08;91.13
51289;BME280;37372;52.294;5.152;2022-08-19T12:31:11;101521.19;;;22.05;90.86
51289;BME280;37372;52.294;5.152;2022-08-19T12:33:40;101517.25;;;22.03;91.04
51289;BME280;37372;52.294;5.152;2022-08-19T12:36:08;101519.50;;;21.99;91.01
51289;BME280;37372;52.294;5.152;2022-08-19T12:38:35;101519.34;;;21.93;91.50
51289;BME280;37372;52.294;5.152;2022-08-19T12:41:00;101512.22;;;21.88;91.98
51289;BME280;37372;52.294;5.152;2022-08-19T12:43:28;101506.66;;;21.85;93.35
51289;BME280;37372;52.294;5.152;2022-08-19T12:45:55;101506.81;;;21.81;94.60
51289;BME280;37372;52.294;5.152;2022-08-19T12:48:20;101508.56;;;21.79;95.85
51289;BME280;37372;52.294;5.152;2022-08-19T12:50:45;101508.56;;;21.79;96.36
51289;BME280;37372;52.294;5.152;2022-08-19T12:53:12;101509.53;;;21.76;96.39
51289;BME280;37372;52.294;5.152;2022-08-19T12:55:37;101502.41;;;21.71;98.05